createdAt,value
2017-09-01T00:00:10.871Z,9.73
2017-09-01T00:01:11.484Z,9.77
2017-09-01T00:02:12.102Z,9.73
2017-09-01T00:03:12.749Z,9.77
2017-09-01T00:04:13.358Z,9.83
2017-09-01T00:05:13.971Z,9.77
2017-09-01T00:06:14.582Z,9.79
2017-09-01T00:07:15.294Z,9.72
2017-09-01T00:08:15.913Z,9.76
2017-09-01T00:09:16.520Z,9.74
2017-09-01T00:10:17.139Z,9.72
2017-09-01T00:11:17.788Z,9.74
2017-09-01T00:12:18.496Z,9.66
2017-09-01T00:13:19.110Z,9.58
2017-09-01T00:14:19.721Z,9.48
2017-09-01T00:15:20.335Z,9.40
2017-09-01T00:16:20.946Z,9.41
2017-09-01T00:17:21.659Z,9.40
2017-09-01T00:18:22.272Z,9.40
2017-09-01T00:19:22.887Z,9.37
2017-09-01T00:20:23.499Z,9.44
2017-09-01T00:21:24.108Z,9.50
2017-09-01T00:22:24.820Z,9.44
2017-09-01T00:23:25.438Z,9.56
2017-09-01T00:24:26.049Z,9.61
2017-09-01T00:25:26.694Z,9.58
2017-09-01T00:26:27.307Z,9.62
2017-09-01T00:27:28.023Z,9.55
2017-09-01T00:28:28.633Z,9.51
2017-09-01T00:29:29.245Z,9.55
2017-09-01T00:30:29.889Z,9.46
2017-09-01T00:31:30.499Z,9.46
2017-09-01T00:32:31.218Z,9.50
2017-09-01T00:33:31.827Z,9.44
2017-09-01T00:34:32.439Z,9.36
2017-09-01T00:35:33.056Z,9.39
2017-09-01T00:36:33.664Z,9.41
2017-09-01T00:37:34.376Z,9.36
2017-09-01T00:38:34.988Z,9.40
2017-09-01T00:39:35.605Z,9.36
2017-09-01T00:40:36.255Z,9.25
2017-09-01T00:41:36.828Z,9.29
2017-09-01T00:42:37.440Z,9.22
2017-09-01T00:43:38.052Z,9.31
2017-09-01T00:44:38.671Z,9.31
2017-09-01T00:45:39.379Z,9.25
2017-09-01T00:46:39.997Z,9.36
2017-09-01T00:47:40.608Z,9.40
2017-09-01T00:48:41.259Z,9.29
2017-09-01T00:49:41.867Z,9.40
2017-09-01T00:50:42.480Z,9.41
2017-09-01T00:51:43.189Z,9.44
2017-09-01T00:52:43.800Z,9.40
2017-09-01T00:53:44.410Z,9.41
2017-09-01T00:54:45.027Z,9.39
2017-09-01T00:55:45.645Z,9.25
2017-09-01T00:56:46.387Z,9.41
2017-09-01T00:57:47.000Z,9.39
2017-09-01T00:58:47.617Z,9.36
2017-09-01T00:59:48.231Z,9.44
2017-09-01T01:00:48.844Z,9.34
2017-09-01T01:01:49.560Z,9.34
2017-09-01T01:02:50.175Z,9.36
2017-09-01T01:03:50.789Z,9.41
2017-09-01T01:04:51.402Z,9.29
2017-09-01T01:05:52.012Z,9.32
2017-09-01T01:06:52.729Z,9.36
2017-09-01T01:07:53.338Z,9.39
2017-09-01T01:08:53.949Z,9.31
2017-09-01T01:09:54.561Z,9.39
2017-09-01T01:10:55.174Z,9.40
2017-09-01T01:11:55.786Z,9.31
2017-09-01T01:12:56.397Z,9.40
2017-09-01T01:13:57.009Z,9.39
2017-09-01T01:14:57.628Z,9.44
2017-09-01T01:15:58.335Z,9.40
2017-09-01T01:16:58.951Z,9.40
2017-09-01T01:17:59.562Z,9.41
2017-09-01T01:19:00.172Z,9.41
2017-09-01T01:20:00.785Z,9.36
2017-09-01T01:21:01.497Z,9.40
2017-09-01T01:22:02.110Z,9.44
2017-09-01T01:23:02.723Z,9.39
2017-09-01T01:24:03.333Z,9.37
2017-09-01T01:25:03.950Z,9.37
2017-09-01T01:26:04.665Z,9.37
2017-09-01T01:27:05.282Z,9.34
2017-09-01T01:28:05.891Z,9.29
2017-09-01T01:29:06.504Z,9.29
2017-09-01T01:30:07.115Z,9.23
2017-09-01T01:31:07.826Z,9.19
2017-09-01T01:32:08.440Z,9.23
2017-09-01T01:33:09.050Z,9.26
2017-09-01T01:34:09.663Z,9.26
2017-09-01T01:35:10.280Z,9.23
2017-09-01T01:36:10.997Z,9.11
2017-09-01T01:37:11.609Z,9.11
2017-09-01T01:38:12.218Z,9.25
2017-09-01T01:39:12.836Z,9.16
2017-09-01T01:40:13.444Z,9.13
2017-09-01T01:41:14.156Z,9.10
2017-09-01T01:42:14.767Z,9.14
2017-09-01T01:43:15.384Z,9.03
2017-09-01T01:44:15.993Z,9.08
2017-09-01T01:45:16.609Z,9.04
2017-09-01T01:46:17.318Z,9.03
2017-09-01T01:47:17.931Z,9.08
2017-09-01T01:48:18.543Z,9.06
2017-09-01T01:49:19.155Z,9.08
2017-09-01T01:50:19.799Z,9.06
2017-09-01T01:51:20.509Z,9.10
2017-09-01T01:52:21.121Z,9.10
2017-09-01T01:53:21.738Z,9.10
2017-09-01T01:54:22.353Z,9.14
2017-09-01T01:55:22.969Z,9.16
2017-09-01T01:56:23.676Z,9.13
2017-09-01T01:57:24.321Z,9.16
2017-09-01T01:58:24.936Z,9.14
2017-09-01T01:59:25.545Z,9.25
2017-09-01T02:00:26.158Z,9.22
2017-09-01T02:01:26.922Z,9.22
2017-09-01T02:02:27.532Z,9.23
2017-09-01T02:03:28.142Z,9.28
2017-09-01T02:04:28.758Z,9.34
2017-09-01T02:05:29.377Z,9.28
2017-09-01T02:06:30.089Z,9.32
2017-09-01T02:07:30.697Z,9.36
2017-09-01T02:08:31.311Z,9.31
2017-09-01T02:09:31.926Z,9.37
2017-09-01T02:10:32.541Z,9.31
2017-09-01T02:11:33.149Z,9.37
2017-09-01T02:12:33.873Z,9.40
2017-09-01T02:13:34.484Z,9.36
2017-09-01T02:14:35.094Z,9.36
2017-09-01T02:15:35.712Z,9.37
2017-09-01T02:16:36.319Z,9.39
2017-09-01T02:17:36.937Z,9.37
2017-09-01T02:18:37.679Z,9.26
2017-09-01T02:19:38.325Z,9.29
2017-09-01T02:20:38.942Z,9.39
2017-09-01T02:21:39.550Z,9.36
2017-09-01T02:22:40.162Z,9.39
2017-09-01T02:23:40.874Z,9.40
2017-09-01T02:24:41.485Z,9.39
2017-09-01T02:25:42.104Z,9.40
2017-09-01T02:26:42.717Z,9.41
2017-09-01T02:27:43.358Z,9.29
2017-09-01T02:28:44.071Z,9.25
2017-09-01T02:29:44.683Z,9.23
2017-09-01T02:30:45.295Z,9.34
2017-09-01T02:31:45.907Z,9.25
2017-09-01T02:32:46.524Z,9.26
2017-09-01T02:33:47.169Z,9.34
2017-09-01T02:34:47.788Z,9.25
2017-09-01T02:35:48.403Z,9.36
2017-09-01T02:36:49.111Z,9.36
2017-09-01T02:37:49.757Z,9.34
2017-09-01T02:38:50.363Z,9.36
2017-09-01T02:39:50.974Z,9.26
2017-09-01T02:40:51.589Z,9.34
2017-09-01T02:41:52.333Z,9.39
2017-09-01T02:42:52.944Z,9.43
2017-09-01T02:43:53.554Z,9.37
2017-09-01T02:44:54.167Z,9.32
2017-09-01T02:45:54.785Z,9.37
2017-09-01T02:46:55.494Z,9.37
2017-09-01T02:47:56.112Z,9.40
2017-09-01T02:48:56.725Z,9.28
2017-09-01T02:49:57.365Z,9.36
2017-09-01T02:50:57.976Z,9.34
2017-09-01T02:51:58.690Z,9.29
2017-09-01T02:52:59.334Z,9.37
2017-09-01T02:53:59.951Z,9.32
2017-09-01T02:55:00.562Z,9.36
2017-09-01T02:56:01.175Z,9.39
2017-09-01T02:57:01.892Z,9.39
2017-09-01T02:58:02.502Z,9.47
2017-09-01T02:59:03.110Z,9.39
2017-09-01T03:00:03.729Z,9.44
2017-09-01T03:01:04.338Z,9.46
2017-09-01T03:02:05.049Z,9.46
2017-09-01T03:03:05.661Z,9.48
2017-09-01T03:04:06.277Z,9.39
2017-09-01T03:05:06.890Z,9.41
2017-09-01T03:06:07.503Z,9.40
2017-09-01T03:07:08.218Z,9.43
2017-09-01T03:08:08.833Z,9.43
2017-09-01T03:09:09.443Z,9.46
2017-09-01T03:10:10.056Z,9.46
2017-09-01T03:11:10.705Z,9.43
2017-09-01T03:12:11.413Z,9.47
2017-09-01T03:13:12.025Z,9.51
2017-09-01T03:14:12.637Z,9.44
2017-09-01T03:15:13.248Z,9.46
2017-09-01T03:16:13.858Z,9.41
2017-09-01T03:17:14.571Z,9.46
2017-09-01T03:18:15.185Z,9.39
2017-09-01T03:19:15.796Z,9.51
2017-09-01T03:20:16.438Z,9.46
2017-09-01T03:21:17.057Z,9.48
2017-09-01T03:22:17.671Z,9.44
2017-09-01T03:23:18.280Z,9.50
2017-09-01T03:24:18.925Z,9.48
2017-09-01T03:25:19.641Z,9.50
2017-09-01T03:26:20.249Z,9.55
2017-09-01T03:27:20.866Z,9.51
2017-09-01T03:28:21.475Z,9.47
2017-09-01T03:29:22.117Z,9.50
2017-09-01T03:30:22.867Z,9.47
2017-09-01T03:31:23.512Z,9.51
2017-09-01T03:32:24.120Z,9.59
2017-09-01T03:33:24.731Z,9.55
2017-09-01T03:34:25.374Z,9.61
2017-09-01T03:35:26.085Z,9.64
2017-09-01T03:36:26.697Z,9.55
2017-09-01T03:37:27.309Z,9.41
2017-09-01T03:38:27.923Z,9.43
2017-09-01T03:39:28.566Z,9.48
2017-09-01T03:40:29.183Z,9.43
2017-09-01T03:41:29.899Z,9.40
2017-09-01T03:42:30.514Z,9.43
2017-09-01T03:43:31.129Z,9.43
2017-09-01T03:44:31.737Z,9.37
2017-09-01T03:45:32.408Z,9.39
2017-09-01T03:46:33.095Z,9.40
2017-09-01T03:47:33.711Z,9.34
2017-09-01T03:48:34.318Z,9.36
2017-09-01T03:49:34.955Z,9.31
2017-09-01T03:50:35.545Z,9.23
2017-09-01T03:51:36.157Z,9.31
2017-09-01T03:52:36.867Z,9.25
2017-09-01T03:53:37.486Z,9.34
2017-09-01T03:54:38.097Z,9.29
2017-09-01T03:55:38.710Z,9.26
2017-09-01T03:56:39.320Z,9.23
2017-09-01T03:57:40.066Z,9.21
2017-09-01T03:58:40.677Z,9.25
2017-09-01T03:59:41.292Z,9.22
2017-09-01T04:00:41.900Z,9.26
2017-09-01T04:01:42.512Z,9.28
2017-09-01T04:02:43.229Z,9.34
2017-09-01T04:03:43.845Z,9.31
2017-09-01T04:04:44.455Z,9.28
2017-09-01T04:05:45.065Z,9.25
2017-09-01T04:06:45.678Z,9.28
2017-09-01T04:07:46.392Z,9.26
2017-09-01T04:08:47.003Z,9.26
2017-09-01T04:09:47.622Z,9.25
2017-09-01T04:10:48.228Z,9.28
2017-09-01T04:11:48.846Z,9.26
2017-09-01T04:12:49.562Z,9.25
2017-09-01T04:13:50.174Z,9.28
2017-09-01T04:14:50.804Z,9.21
2017-09-01T04:15:51.398Z,9.32
2017-09-01T04:16:52.043Z,9.25
2017-09-01T04:17:52.765Z,9.22
2017-09-01T04:18:53.398Z,9.23
2017-09-01T04:19:54.011Z,9.19
2017-09-01T04:20:54.628Z,9.22
2017-09-01T04:21:55.237Z,9.23
2017-09-01T04:22:55.998Z,9.25
2017-09-01T04:23:56.615Z,9.16
2017-09-01T04:24:57.226Z,9.13
2017-09-01T04:25:57.840Z,9.16
2017-09-01T04:26:58.445Z,9.19
2017-09-01T04:27:59.211Z,9.19
2017-09-01T04:28:59.826Z,9.16
2017-09-01T04:30:00.434Z,9.06
2017-09-01T04:31:01.049Z,8.97
2017-09-01T04:32:01.655Z,9.10
2017-09-01T04:33:02.418Z,9.02
2017-09-01T04:34:03.031Z,9.03
2017-09-01T04:35:03.641Z,8.97
2017-09-01T04:36:04.252Z,9.00
2017-09-01T04:37:04.863Z,8.99
2017-09-01T04:38:05.624Z,8.97
2017-09-01T04:39:06.235Z,9.02
2017-09-01T04:40:06.846Z,8.92
2017-09-01T04:41:07.458Z,8.97
2017-09-01T04:42:08.074Z,9.00
2017-09-01T04:43:08.829Z,8.99
2017-09-01T04:44:09.443Z,9.08
2017-09-01T04:45:10.060Z,9.08
2017-09-01T04:46:10.667Z,9.06
2017-09-01T04:47:11.278Z,9.02
2017-09-01T04:48:12.042Z,9.25
2017-09-01T04:49:12.659Z,9.13
2017-09-01T04:50:13.304Z,9.18
2017-09-01T04:51:13.913Z,9.14
2017-09-01T04:52:14.529Z,9.16
2017-09-01T04:53:15.290Z,9.10
2017-09-01T04:54:15.900Z,9.18
2017-09-01T04:55:16.515Z,9.10
2017-09-01T04:56:17.155Z,9.10
2017-09-01T04:57:17.766Z,9.10
2017-09-01T04:58:18.384Z,9.19
2017-09-01T04:59:18.997Z,9.22
2017-09-01T05:00:19.856Z,9.08
2017-09-01T05:01:20.476Z,9.04
2017-09-01T05:02:21.090Z,9.10
2017-09-01T05:03:21.701Z,9.18
2017-09-01T05:04:22.311Z,9.21
2017-09-01T05:05:23.073Z,9.25
2017-09-01T05:06:23.694Z,9.16
2017-09-01T05:07:24.302Z,9.26
2017-09-01T05:08:24.913Z,9.29
2017-09-01T05:09:25.530Z,9.31
2017-09-01T05:10:26.323Z,9.25
2017-09-01T05:11:26.937Z,9.32
2017-09-01T05:12:27.549Z,9.32
2017-09-01T05:13:28.161Z,9.36
2017-09-01T05:14:28.771Z,9.37
2017-09-01T05:15:29.531Z,9.34
2017-09-01T05:16:30.144Z,9.37
2017-09-01T05:17:30.757Z,9.36
2017-09-01T05:18:31.367Z,9.34
2017-09-01T05:19:31.977Z,9.25
2017-09-01T05:20:32.595Z,9.40
2017-09-01T05:21:33.207Z,9.39
2017-09-01T05:22:33.820Z,9.39
2017-09-01T05:23:34.437Z,9.36
2017-09-01T05:24:35.306Z,9.32
2017-09-01T05:25:35.913Z,9.31
2017-09-01T05:26:36.559Z,9.34
2017-09-01T05:27:37.200Z,9.32
2017-09-01T05:28:37.813Z,9.34
2017-09-01T05:29:38.575Z,9.29
2017-09-01T05:30:39.189Z,9.40
2017-09-01T05:31:39.806Z,9.43
2017-09-01T05:32:40.424Z,9.39
2017-09-01T05:33:41.034Z,9.39
2017-09-01T05:34:41.646Z,9.37
2017-09-01T05:35:42.259Z,9.43
2017-09-01T05:36:43.024Z,9.39
2017-09-01T05:37:43.640Z,9.43
2017-09-01T05:38:44.251Z,9.51
2017-09-01T05:39:44.864Z,9.47
2017-09-01T05:40:45.476Z,9.46
2017-09-01T05:41:46.239Z,9.50
2017-09-01T05:42:46.859Z,9.46
2017-09-01T05:43:47.468Z,9.41
2017-09-01T05:44:48.081Z,9.54
2017-09-01T05:45:48.701Z,9.51
2017-09-01T05:46:49.466Z,9.58
2017-09-01T05:47:50.077Z,9.58
2017-09-01T05:48:50.688Z,9.62
2017-09-01T05:49:51.300Z,9.69
2017-09-01T05:50:51.912Z,9.68
2017-09-01T05:51:52.732Z,9.68
2017-09-01T05:52:53.342Z,9.76
2017-09-01T05:53:53.957Z,9.77
2017-09-01T05:54:54.570Z,9.69
2017-09-01T05:55:55.189Z,9.72
2017-09-01T05:56:56.005Z,9.74
2017-09-01T05:57:56.616Z,9.73
2017-09-01T05:58:57.234Z,9.76
2017-09-01T05:59:57.841Z,9.69
2017-09-01T06:00:58.453Z,9.73
2017-09-01T06:01:59.217Z,9.73
2017-09-01T06:02:59.829Z,9.77
2017-09-01T06:04:00.440Z,9.68
2017-09-01T06:05:01.052Z,9.69
2017-09-01T06:06:01.670Z,9.72
2017-09-01T06:07:02.282Z,9.76
2017-09-01T06:08:02.931Z,9.76
2017-09-01T06:09:03.543Z,9.76
2017-09-01T06:10:04.161Z,9.74
2017-09-01T06:11:04.777Z,9.80
2017-09-01T06:12:05.536Z,9.72
2017-09-01T06:13:06.152Z,9.76
2017-09-01T06:14:06.768Z,9.82
2017-09-01T06:15:07.378Z,9.74
2017-09-01T06:16:07.989Z,9.74
2017-09-01T06:17:08.769Z,9.73
2017-09-01T06:18:09.368Z,9.72
2017-09-01T06:19:10.012Z,9.72
2017-09-01T06:20:10.624Z,9.73
2017-09-01T06:21:11.235Z,9.74
2017-09-01T06:22:12.086Z,9.73
2017-09-01T06:23:12.696Z,9.74
2017-09-01T06:24:13.315Z,9.77
2017-09-01T06:25:13.964Z,9.80
2017-09-01T06:26:14.578Z,9.74
2017-09-01T06:27:15.401Z,9.79
2017-09-01T06:28:16.003Z,9.72
2017-09-01T06:29:16.618Z,9.72
2017-09-01T06:30:17.231Z,9.68
2017-09-01T06:31:17.849Z,9.72
2017-09-01T06:32:18.459Z,9.64
2017-09-01T06:33:19.079Z,9.74
2017-09-01T06:34:19.689Z,9.73
2017-09-01T06:35:20.303Z,9.68
2017-09-01T06:36:20.919Z,9.76
2017-09-01T06:37:21.771Z,9.77
2017-09-01T06:38:22.383Z,9.74
2017-09-01T06:39:22.998Z,9.74
2017-09-01T06:40:23.612Z,9.79
2017-09-01T06:41:24.228Z,9.76
2017-09-01T06:42:24.994Z,9.82
2017-09-01T06:43:25.607Z,9.86
2017-09-01T06:44:26.226Z,9.94
2017-09-01T06:45:26.878Z,9.97
2017-09-01T06:46:27.529Z,10.01
2017-09-01T06:47:28.292Z,9.99
2017-09-01T06:48:28.907Z,9.92
2017-09-01T06:49:29.522Z,9.98
2017-09-01T06:50:30.136Z,9.94
2017-09-01T06:51:30.754Z,9.92
2017-09-01T06:52:31.524Z,9.95
2017-09-01T06:53:32.135Z,9.92
2017-09-01T06:54:32.757Z,9.92
2017-09-01T06:55:33.369Z,9.84
2017-09-01T06:56:33.984Z,9.89
2017-09-01T06:57:34.753Z,9.79
2017-09-01T06:58:35.372Z,9.76
2017-09-01T06:59:35.983Z,9.77
2017-09-01T07:00:36.601Z,9.79
2017-09-01T07:01:37.216Z,9.86
2017-09-01T07:02:37.981Z,9.94
2017-09-01T07:03:38.603Z,9.92
2017-09-01T07:04:39.220Z,10.05
2017-09-01T07:05:39.833Z,10.16
2017-09-01T07:06:40.451Z,10.22
2017-09-01T07:07:41.269Z,10.28
2017-09-01T07:08:41.887Z,10.34
2017-09-01T07:09:42.512Z,10.41
2017-09-01T07:10:43.122Z,10.35
2017-09-01T07:11:43.742Z,10.41
2017-09-01T07:12:44.506Z,10.56
2017-09-01T07:13:45.123Z,10.40
2017-09-01T07:14:45.743Z,10.59
2017-09-01T07:15:46.359Z,10.53
2017-09-01T07:16:46.979Z,10.46
2017-09-01T07:17:47.777Z,10.38
2017-09-01T07:18:48.395Z,10.41
2017-09-01T07:19:49.010Z,10.54
2017-09-01T07:20:49.659Z,10.42
2017-09-01T07:21:50.275Z,10.46
2017-09-01T07:22:50.890Z,10.46
2017-09-01T07:23:51.506Z,10.38
2017-09-01T07:24:52.324Z,10.59
2017-09-01T07:25:52.942Z,10.48
2017-09-01T07:26:53.559Z,10.40
2017-09-01T07:27:54.181Z,10.35
2017-09-01T07:28:54.801Z,10.25
2017-09-01T07:29:55.563Z,10.30
2017-09-01T07:30:56.180Z,10.26
2017-09-01T07:31:56.828Z,10.10
2017-09-01T07:32:57.442Z,10.13
2017-09-01T07:33:58.057Z,9.95
2017-09-01T07:34:58.824Z,9.92
2017-09-01T07:35:59.438Z,9.79
2017-09-01T07:37:00.063Z,9.79
2017-09-01T07:38:00.673Z,9.69
2017-09-01T07:39:01.294Z,9.61
2017-09-01T07:40:02.056Z,9.41
2017-09-01T07:41:02.706Z,9.41
2017-09-01T07:42:03.331Z,9.41
2017-09-01T07:43:03.937Z,9.40
2017-09-01T07:44:04.550Z,9.29
2017-09-01T07:45:05.348Z,9.34
2017-09-01T07:46:05.969Z,9.37
2017-09-01T07:47:06.582Z,9.34
2017-09-01T07:48:07.202Z,9.34
2017-09-01T07:49:07.850Z,9.29
2017-09-01T07:50:08.616Z,9.29
2017-09-01T07:51:09.236Z,9.32
2017-09-01T07:52:09.890Z,9.51
2017-09-01T07:53:10.503Z,9.50
2017-09-01T07:54:11.117Z,9.61
2017-09-01T07:55:11.732Z,9.58
2017-09-01T07:56:12.352Z,9.59
2017-09-01T07:57:12.969Z,9.69
2017-09-01T07:58:13.732Z,9.74
2017-09-01T07:59:14.352Z,9.74
2017-09-01T08:00:14.971Z,9.74
2017-09-01T08:01:15.583Z,9.91
2017-09-01T08:02:16.200Z,10.02
2017-09-01T08:03:16.971Z,10.07
2017-09-01T08:04:17.584Z,10.13
2017-09-01T08:05:18.198Z,10.12
2017-09-01T08:06:18.820Z,10.19
2017-09-01T08:07:19.467Z,10.23
2017-09-01T08:08:20.272Z,10.30
2017-09-01T08:09:20.885Z,10.44
2017-09-01T08:10:21.507Z,10.54
2017-09-01T08:11:22.123Z,10.49
2017-09-01T08:12:22.739Z,10.61
2017-09-01T08:13:23.536Z,10.61
2017-09-01T08:14:24.156Z,10.49
2017-09-01T08:15:24.770Z,10.41
2017-09-01T08:16:25.388Z,10.46
2017-09-01T08:17:26.004Z,10.42
2017-09-01T08:18:26.769Z,10.44
2017-09-01T08:19:27.387Z,10.49
2017-09-01T08:20:28.003Z,10.40
2017-09-01T08:21:28.619Z,10.42
2017-09-01T08:22:29.237Z,10.59
2017-09-01T08:23:29.891Z,10.48
2017-09-01T08:24:30.692Z,10.60
2017-09-01T08:25:31.312Z,10.63
2017-09-01T08:26:31.933Z,10.69
2017-09-01T08:27:32.579Z,10.64
2017-09-01T08:28:33.202Z,10.74
2017-09-01T08:29:33.964Z,10.64
2017-09-01T08:30:34.614Z,10.74
2017-09-01T08:31:35.232Z,10.64
2017-09-01T08:32:35.847Z,10.67
2017-09-01T08:33:36.463Z,10.69
2017-09-01T08:34:37.081Z,10.72
2017-09-01T08:35:37.697Z,10.75
2017-09-01T08:36:38.463Z,10.76
2017-09-01T08:37:39.080Z,10.82
2017-09-01T08:38:39.704Z,10.72
2017-09-01T08:39:40.322Z,10.79
2017-09-01T08:40:40.943Z,10.79
2017-09-01T08:41:41.705Z,10.76
2017-09-01T08:42:42.330Z,10.78
2017-09-01T08:43:42.943Z,10.72
2017-09-01T08:44:43.561Z,10.69
2017-09-01T08:45:44.177Z,10.72
2017-09-01T08:46:44.949Z,10.69
2017-09-01T08:47:45.563Z,10.67
2017-09-01T08:48:46.179Z,10.67
2017-09-01T08:49:46.802Z,10.69
2017-09-01T08:50:47.415Z,10.72
2017-09-01T08:51:48.222Z,10.64
2017-09-01T08:52:48.835Z,10.57
2017-09-01T08:53:49.449Z,10.54
2017-09-01T08:54:50.066Z,10.56
2017-09-01T08:55:50.682Z,10.53
2017-09-01T08:56:51.449Z,10.60
2017-09-01T08:57:52.067Z,10.54
2017-09-01T08:58:52.683Z,10.53
2017-09-01T08:59:53.302Z,10.59
2017-09-01T09:00:53.916Z,10.60
2017-09-01T09:01:54.684Z,10.64
2017-09-01T09:02:55.310Z,10.63
2017-09-01T09:03:55.953Z,10.71
2017-09-01T09:04:56.601Z,10.56
2017-09-01T09:05:57.224Z,10.59
2017-09-01T09:06:57.987Z,10.61
2017-09-01T09:07:58.604Z,10.40
2017-09-01T09:08:59.224Z,10.26
2017-09-01T09:09:59.837Z,10.17
2017-09-01T09:11:00.455Z,10.16
2017-09-01T09:12:01.221Z,10.10
2017-09-01T09:13:01.840Z,10.07
2017-09-01T09:14:02.457Z,10.12
2017-09-01T09:15:03.079Z,10.16
2017-09-01T09:16:03.692Z,10.31
2017-09-01T09:17:04.462Z,10.38
2017-09-01T09:18:05.076Z,10.46
2017-09-01T09:19:05.710Z,10.59
2017-09-01T09:20:06.312Z,10.68
2017-09-01T09:21:06.931Z,10.63
2017-09-01T09:22:07.702Z,10.64
2017-09-01T09:23:08.323Z,10.67
2017-09-01T09:24:08.935Z,10.75
2017-09-01T09:25:09.551Z,10.69
2017-09-01T09:26:10.174Z,10.67
2017-09-01T09:27:10.939Z,10.72
2017-09-01T09:28:11.557Z,10.56
2017-09-01T09:29:12.207Z,10.61
2017-09-01T09:30:12.828Z,10.64
2017-09-01T09:31:13.475Z,10.64
2017-09-01T09:32:14.242Z,10.69
2017-09-01T09:33:14.860Z,10.87
2017-09-01T09:34:15.477Z,10.81
2017-09-01T09:35:16.093Z,10.89
2017-09-01T09:36:16.709Z,10.97
2017-09-01T09:37:17.477Z,10.99
2017-09-01T09:38:18.093Z,11.05
2017-09-01T09:39:18.711Z,11.23
2017-09-01T09:40:19.332Z,11.25
2017-09-01T09:41:19.952Z,11.35
2017-09-01T09:42:20.719Z,11.40
2017-09-01T09:43:21.367Z,11.50
2017-09-01T09:44:21.984Z,11.54
2017-09-01T09:45:22.603Z,11.59
2017-09-01T09:46:23.218Z,11.75
2017-09-01T09:47:23.985Z,11.80
2017-09-01T09:48:24.602Z,11.80
2017-09-01T09:49:25.221Z,11.77
2017-09-01T09:50:25.838Z,11.70
2017-09-01T09:51:26.462Z,11.77
2017-09-01T09:52:27.230Z,11.87
2017-09-01T09:53:27.850Z,11.94
2017-09-01T09:54:28.464Z,12.09
2017-09-01T09:55:29.082Z,12.10
2017-09-01T09:56:29.700Z,12.18
2017-09-01T09:57:30.317Z,12.22
2017-09-01T09:58:31.091Z,12.27
2017-09-01T09:59:31.710Z,12.32
2017-09-01T10:00:32.326Z,12.40
2017-09-01T10:01:32.946Z,12.46
2017-09-01T10:02:33.568Z,12.43
2017-09-01T10:03:34.182Z,12.46
2017-09-01T10:04:34.950Z,12.60
2017-09-01T10:05:35.568Z,12.58
2017-09-01T10:06:36.221Z,12.54
2017-09-01T10:07:36.841Z,12.29
2017-09-01T10:08:37.460Z,12.20
2017-09-01T10:09:38.260Z,11.97
2017-09-01T10:10:38.877Z,11.99
2017-09-01T10:11:39.493Z,11.99
2017-09-01T10:12:40.113Z,12.09
2017-09-01T10:13:40.729Z,12.22
2017-09-01T10:14:41.500Z,12.18
2017-09-01T10:15:42.119Z,12.46
2017-09-01T10:16:42.738Z,12.60
2017-09-01T10:17:43.357Z,12.80
2017-09-01T10:18:43.974Z,13.00
2017-09-01T10:19:44.743Z,13.13
2017-09-01T10:20:45.393Z,13.12
2017-09-01T10:21:46.017Z,13.19
2017-09-01T10:22:46.640Z,13.20
2017-09-01T10:23:47.256Z,13.33
2017-09-01T10:24:48.022Z,13.41
2017-09-01T10:25:48.640Z,13.33
2017-09-01T10:26:49.263Z,13.44
2017-09-01T10:27:49.878Z,13.50
2017-09-01T10:28:50.497Z,13.33
2017-09-01T10:29:51.266Z,13.09
2017-09-01T10:30:51.886Z,12.86
2017-09-01T10:31:52.504Z,12.75
2017-09-01T10:32:53.171Z,12.57
2017-09-01T10:33:53.778Z,12.43
2017-09-01T10:34:54.543Z,12.32
2017-09-01T10:35:55.161Z,12.15
2017-09-01T10:36:55.778Z,12.18
2017-09-01T10:37:56.397Z,12.06
2017-09-01T10:38:57.016Z,11.99
2017-09-01T10:39:57.640Z,11.94
2017-09-01T10:40:58.287Z,11.83
2017-09-01T10:41:58.904Z,11.78
2017-09-01T10:42:59.527Z,11.77
2017-09-01T10:44:00.299Z,11.72
2017-09-01T10:45:00.926Z,11.73
2017-09-01T10:46:01.535Z,11.72
2017-09-01T10:47:02.153Z,11.75
2017-09-01T10:48:02.777Z,11.69
2017-09-01T10:49:03.400Z,11.73
2017-09-01T10:50:04.163Z,11.73
2017-09-01T10:51:04.779Z,11.81
2017-09-01T10:52:05.396Z,11.80
2017-09-01T10:53:06.014Z,11.80
2017-09-01T10:54:06.635Z,11.75
2017-09-01T10:55:07.256Z,11.75
2017-09-01T10:56:08.023Z,11.57
2017-09-01T10:57:08.644Z,11.59
2017-09-01T10:58:09.259Z,11.65
2017-09-01T10:59:09.877Z,11.59
2017-09-01T11:00:10.502Z,11.68
2017-09-01T11:01:11.264Z,11.57
2017-09-01T11:02:11.881Z,11.59
2017-09-01T11:03:12.499Z,11.69
2017-09-01T11:04:13.117Z,11.63
2017-09-01T11:05:13.739Z,11.59
2017-09-01T11:06:14.504Z,11.69
2017-09-01T11:07:15.120Z,11.73
2017-09-01T11:08:15.739Z,11.66
2017-09-01T11:09:16.357Z,11.63
2017-09-01T11:10:17.011Z,11.43
2017-09-01T11:11:17.814Z,11.29
2017-09-01T11:12:18.439Z,10.99
2017-09-01T11:13:19.048Z,10.90
2017-09-01T11:14:19.671Z,10.79
2017-09-01T11:15:20.288Z,10.78
2017-09-01T11:16:21.084Z,10.81
2017-09-01T11:17:21.701Z,10.89
2017-09-01T11:18:22.322Z,10.92
2017-09-01T11:19:22.970Z,10.94
2017-09-01T11:20:23.586Z,10.89
2017-09-01T11:21:24.359Z,10.84
2017-09-01T11:22:24.974Z,10.90
2017-09-01T11:23:25.591Z,10.87
2017-09-01T11:24:26.208Z,10.89
2017-09-01T11:25:26.825Z,10.87
2017-09-01T11:26:27.592Z,11.04
2017-09-01T11:27:28.211Z,11.08
2017-09-01T11:28:28.833Z,11.12
2017-09-01T11:29:29.447Z,11.26
2017-09-01T11:30:30.066Z,11.35
2017-09-01T11:31:30.839Z,11.33
2017-09-01T11:32:31.452Z,11.50
2017-09-01T11:33:32.070Z,11.57
2017-09-01T11:34:32.689Z,11.57
2017-09-01T11:35:33.333Z,11.70
2017-09-01T11:36:34.102Z,11.70
2017-09-01T11:37:34.725Z,11.78
2017-09-01T11:38:35.373Z,11.81
2017-09-01T11:39:35.989Z,11.78
2017-09-01T11:40:36.612Z,11.75
2017-09-01T11:41:37.376Z,11.52
2017-09-01T11:42:37.999Z,11.54
2017-09-01T11:43:38.614Z,11.57
2017-09-01T11:44:39.266Z,11.68
2017-09-01T11:45:39.882Z,11.84
2017-09-01T11:46:40.655Z,11.86
2017-09-01T11:47:41.269Z,12.09
2017-09-01T11:48:41.887Z,12.07
2017-09-01T11:49:42.511Z,12.35
2017-09-01T11:50:43.128Z,12.57
2017-09-01T11:51:43.895Z,12.70
2017-09-01T11:52:44.516Z,12.78
2017-09-01T11:53:45.132Z,12.91
2017-09-01T11:54:45.750Z,13.00
2017-09-01T11:55:46.373Z,13.09
2017-09-01T11:56:47.144Z,13.03
2017-09-01T11:57:47.765Z,12.90
2017-09-01T11:58:48.421Z,12.94
2017-09-01T11:59:49.039Z,12.95
2017-09-01T12:00:49.655Z,12.94
2017-09-01T12:01:50.423Z,12.98
2017-09-01T12:02:51.048Z,13.01
2017-09-01T12:03:51.669Z,13.11
2017-09-01T12:04:52.284Z,13.13
2017-09-01T12:05:52.902Z,13.15
2017-09-01T12:06:53.672Z,13.16
2017-09-01T12:07:54.293Z,13.03
2017-09-01T12:08:54.912Z,13.16
2017-09-01T12:09:55.539Z,13.22
2017-09-01T12:10:56.157Z,13.16
2017-09-01T12:11:56.957Z,13.20
2017-09-01T12:12:57.584Z,13.15
2017-09-01T12:13:58.202Z,13.28
2017-09-01T12:14:58.821Z,13.53
2017-09-01T12:15:59.446Z,13.74
2017-09-01T12:17:00.215Z,13.81
2017-09-01T12:18:00.831Z,13.96
2017-09-01T12:19:01.458Z,14.03
2017-09-01T12:20:02.075Z,13.95
2017-09-01T12:21:02.697Z,13.90
2017-09-01T12:22:03.476Z,13.81
2017-09-01T12:23:04.085Z,13.70
2017-09-01T12:24:04.705Z,13.72
2017-09-01T12:25:05.325Z,13.92
2017-09-01T12:26:05.946Z,13.93
2017-09-01T12:27:06.718Z,14.14
2017-09-01T12:28:07.336Z,14.18
2017-09-01T12:29:07.960Z,14.14
2017-09-01T12:30:08.592Z,14.05
2017-09-01T12:31:09.231Z,13.78
2017-09-01T12:32:09.999Z,13.57
2017-09-01T12:33:10.618Z,13.30
2017-09-01T12:34:11.235Z,13.09
2017-09-01T12:35:11.854Z,13.03
2017-09-01T12:36:12.479Z,13.03
2017-09-01T12:37:13.248Z,12.97
2017-09-01T12:38:13.870Z,12.85
2017-09-01T12:39:14.485Z,12.72
2017-09-01T12:40:15.102Z,12.72
2017-09-01T12:41:15.719Z,12.82
2017-09-01T12:42:16.490Z,12.93
2017-09-01T12:43:17.113Z,13.00
2017-09-01T12:44:17.744Z,12.93
2017-09-01T12:45:18.356Z,12.90
2017-09-01T12:46:18.975Z,12.83
2017-09-01T12:47:19.928Z,12.80
2017-09-01T12:48:20.544Z,12.83
2017-09-01T12:49:21.163Z,12.85
2017-09-01T12:50:21.779Z,12.79
2017-09-01T12:51:22.398Z,12.85
2017-09-01T12:52:23.164Z,12.93
2017-09-01T12:53:23.782Z,12.98
2017-09-01T12:54:24.407Z,12.95
2017-09-01T12:55:25.055Z,12.97
2017-09-01T12:56:25.671Z,13.03
2017-09-01T12:57:26.440Z,13.04
2017-09-01T12:58:27.059Z,13.00
2017-09-01T12:59:27.681Z,13.01
2017-09-01T13:00:28.297Z,13.04
2017-09-01T13:01:28.915Z,13.01
2017-09-01T13:02:29.684Z,13.01
2017-09-01T13:03:30.300Z,12.97
2017-09-01T13:04:30.919Z,12.97
2017-09-01T13:05:31.541Z,12.93
2017-09-01T13:06:32.158Z,12.86
2017-09-01T13:07:32.959Z,12.75
2017-09-01T13:08:33.582Z,12.79
2017-09-01T13:09:34.198Z,12.70
2017-09-01T13:10:34.822Z,12.57
2017-09-01T13:11:35.438Z,12.54
2017-09-01T13:12:36.206Z,12.50
2017-09-01T13:13:36.824Z,12.50
2017-09-01T13:14:37.441Z,12.49
2017-09-01T13:15:38.058Z,12.55